createdAt,value
2022-12-11T00:00:10.294Z,37.17
2022-12-11T00:03:15.820Z,36.63
2022-12-11T00:06:21.102Z,37.30
2022-12-11T00:09:23.243Z,35.57
2022-12-11T00:12:25.383Z,41.13
2022-12-11T00:15:28.177Z,38.60
2022-12-11T00:18:30.332Z,38.17
2022-12-11T00:21:32.841Z,36.50
2022-12-11T00:24:34.902Z,36.10
2022-12-11T00:27:36.981Z,35.90
2022-12-11T00:30:41.259Z,36.97
2022-12-11T00:33:46.332Z,37.43
2022-12-11T00:36:48.348Z,37.23
2022-12-11T00:39:50.335Z,32.23
2022-12-11T00:42:52.291Z,33.17
2022-12-11T00:45:54.343Z,33.13
2022-12-11T00:48:56.485Z,34.47
2022-12-11T00:51:58.542Z,34.20
2022-12-11T00:55:00.542Z,36.00
2022-12-11T00:58:02.496Z,35.37
2022-12-11T01:01:13.938Z,38.00
2022-12-11T01:04:15.918Z,36.00
2022-12-11T01:07:19.072Z,36.60
2022-12-11T01:10:24.253Z,35.30
2022-12-11T01:13:26.340Z,37.30
2022-12-11T01:16:28.375Z,35.07
2022-12-11T01:19:31.649Z,35.27
2022-12-11T01:22:33.668Z,33.63
2022-12-11T01:25:38.362Z,31.87
2022-12-11T01:28:41.581Z,35.57
2022-12-11T01:31:43.568Z,30.17
2022-12-11T01:34:45.548Z,32.90
2022-12-11T01:37:47.855Z,31.60
2022-12-11T01:40:51.450Z,35.93
2022-12-11T01:43:59.300Z,35.47
2022-12-11T01:47:01.335Z,32.03
2022-12-11T01:50:03.568Z,29.87
2022-12-11T01:53:09.077Z,31.77
2022-12-11T01:56:11.435Z,30.80
2022-12-11T01:59:18.054Z,26.60
2022-12-11T02:02:24.741Z,29.50
2022-12-11T02:05:26.838Z,27.53
2022-12-11T02:08:29.906Z,27.93
2022-12-11T02:11:42.844Z,26.37
2022-12-11T02:15:05.668Z,26.03
2022-12-11T02:18:25.611Z,26.97
2022-12-11T02:21:44.105Z,22.13
2022-12-11T02:25:19.212Z,23.97
2022-12-11T02:28:31.427Z,21.40
2022-12-11T02:31:49.318Z,20.97
2022-12-11T02:35:20.775Z,20.67
2022-12-11T02:38:30.336Z,20.90
2022-12-11T02:41:34.024Z,19.70
2022-12-11T02:44:37.257Z,18.70
2022-12-11T02:47:40.529Z,20.47
2022-12-11T02:50:54.315Z,16.13
2022-12-11T02:54:04.395Z,16.13
2022-12-11T02:57:17.077Z,13.57
2022-12-11T03:00:19.656Z,14.47
2022-12-11T03:03:22.280Z,12.60
2022-12-11T03:06:29.850Z,14.70
2022-12-11T03:09:32.623Z,11.60
2022-12-11T03:12:41.136Z,12.20
2022-12-11T03:16:12.489Z,10.03
2022-12-11T03:19:45.816Z,12.80
2022-12-11T03:23:02.929Z,11.07
2022-12-11T03:26:09.057Z,12.23
2022-12-11T03:29:31.989Z,10.93
2022-12-11T03:32:45.106Z,8.17
2022-12-11T03:35:56.275Z,7.97
2022-12-11T03:39:02.311Z,8.60
2022-12-11T03:42:09.050Z,7.63
2022-12-11T03:45:13.814Z,8.13
2022-12-11T03:48:18.973Z,6.77
2022-12-11T03:51:24.469Z,6.77
2022-12-11T03:54:27.774Z,8.90
2022-12-11T03:57:33.928Z,10.90
2022-12-11T04:00:36.404Z,11.67
2022-12-11T04:03:39.251Z,11.50
2022-12-11T04:06:41.269Z,13.43
2022-12-11T04:09:43.286Z,13.87
2022-12-11T04:12:45.282Z,11.57
2022-12-11T04:15:47.325Z,12.73
2022-12-11T04:19:08.040Z,15.30
2022-12-11T04:22:27.083Z,13.87
2022-12-11T04:25:29.138Z,13.13
2022-12-11T04:28:31.176Z,11.73
2022-12-11T04:31:33.290Z,12.83
2022-12-11T04:34:35.256Z,12.53
2022-12-11T04:37:37.965Z,12.83
2022-12-11T04:40:40.039Z,10.90
2022-12-11T04:43:45.447Z,11.80
2022-12-11T04:46:47.492Z,10.90
2022-12-11T04:49:49.602Z,12.00
2022-12-11T04:52:55.201Z,10.27
2022-12-11T04:55:57.621Z,11.00
2022-12-11T04:58:59.613Z,10.57
2022-12-11T05:02:01.740Z,11.50
2022-12-11T05:05:06.155Z,10.57
2022-12-11T05:08:08.657Z,13.10
2022-12-11T05:11:13.868Z,13.20
2022-12-11T05:14:15.986Z,10.23
2022-12-11T05:17:18.010Z,9.07
2022-12-11T05:20:19.930Z,11.00
2022-12-11T05:23:21.921Z,11.37
2022-12-11T05:26:24.008Z,10.83
2022-12-11T05:29:25.948Z,12.83
2022-12-11T05:32:28.649Z,11.30
2022-12-11T05:35:30.651Z,11.47
2022-12-11T05:38:32.763Z,12.77
2022-12-11T05:41:34.691Z,13.73
2022-12-11T05:44:36.709Z,12.30
2022-12-11T05:47:38.714Z,12.40
2022-12-11T05:50:40.675Z,13.50
2022-12-11T05:53:44.282Z,13.53
2022-12-11T05:56:46.315Z,13.00
2022-12-11T05:59:48.284Z,13.83
2022-12-11T06:02:50.354Z,16.43
2022-12-11T06:05:52.543Z,14.13
2022-12-11T06:08:56.801Z,14.53
2022-12-11T06:11:58.847Z,14.17
2022-12-11T06:15:00.804Z,16.60
2022-12-11T06:18:02.892Z,18.50
2022-12-11T06:21:27.783Z,17.47
2022-12-11T06:24:29.803Z,18.23
2022-12-11T06:27:31.792Z,15.97
2022-12-11T06:30:37.548Z,19.20
2022-12-11T06:33:41.454Z,16.60
2022-12-11T06:36:43.445Z,20.87
2022-12-11T06:39:45.573Z,15.90
2022-12-11T06:42:47.571Z,18.00
2022-12-11T06:45:49.611Z,17.00
2022-12-11T06:48:51.545Z,18.97
2022-12-11T06:51:53.668Z,20.23
2022-12-11T06:54:56.001Z,15.30
2022-12-11T06:57:58.013Z,19.40
2022-12-11T07:01:00.106Z,18.90
2022-12-11T07:04:02.243Z,16.17
2022-12-11T07:07:04.329Z,15.47
2022-12-11T07:10:08.604Z,16.97
2022-12-11T07:13:11.003Z,19.70
2022-12-11T07:16:14.960Z,20.13
2022-12-11T07:19:17.094Z,19.73
2022-12-11T07:22:19.136Z,15.93
2022-12-11T07:25:21.105Z,20.87
2022-12-11T07:28:23.291Z,17.20
2022-12-11T07:31:27.140Z,17.50
2022-12-11T07:34:29.316Z,18.50
2022-12-11T07:37:31.329Z,19.30
2022-12-11T07:40:34.067Z,17.43
2022-12-11T07:43:37.859Z,19.40
2022-12-11T07:46:40.642Z,20.67
2022-12-11T07:49:42.684Z,16.77
2022-12-11T07:52:44.773Z,16.73
2022-12-11T07:55:46.779Z,16.57
2022-12-11T07:58:48.873Z,18.13
2022-12-11T08:01:50.848Z,18.33
2022-12-11T08:04:52.833Z,18.37
2022-12-11T08:07:54.838Z,17.90
2022-12-11T08:10:56.961Z,17.73
2022-12-11T08:13:59.892Z,18.23
2022-12-11T08:17:02.690Z,18.57
2022-12-11T08:20:05.606Z,17.67
2022-12-11T08:23:07.591Z,15.47
2022-12-11T08:26:17.055Z,16.87
2022-12-11T08:29:18.937Z,16.53
2022-12-11T08:32:20.878Z,16.73
2022-12-11T08:35:25.834Z,16.13
2022-12-11T08:38:27.810Z,16.17
2022-12-11T08:41:30.937Z,15.00
2022-12-11T08:44:32.977Z,16.47
2022-12-11T08:47:35.013Z,15.57
2022-12-11T08:50:37.790Z,20.57
2022-12-11T08:53:40.225Z,17.10
2022-12-11T08:56:42.170Z,14.67
2022-12-11T08:59:44.151Z,15.13
2022-12-11T09:02:46.274Z,13.77
2022-12-11T09:05:48.369Z,13.23
2022-12-11T09:08:53.168Z,12.37
2022-12-11T09:11:55.765Z,10.53
2022-12-11T09:14:57.705Z,12.80
2022-12-11T09:17:59.681Z,13.20
2022-12-11T09:21:10.230Z,10.87
2022-12-11T09:24:13.685Z,11.23
2022-12-11T09:27:15.715Z,13.60
2022-12-11T09:30:17.789Z,13.37
2022-12-11T09:33:19.807Z,15.33
2022-12-11T09:36:22.444Z,11.63
2022-12-11T09:39:24.541Z,12.87
2022-12-11T09:42:51.325Z,11.13
2022-12-11T09:45:55.342Z,13.07
2022-12-11T09:48:57.810Z,10.30
2022-12-11T09:51:59.743Z,14.40
2022-12-11T09:55:10.209Z,13.03
2022-12-11T09:58:19.129Z,11.37
2022-12-11T10:01:39.162Z,13.60
2022-12-11T10:04:43.730Z,12.57
2022-12-11T10:07:45.691Z,14.10
2022-12-11T10:11:06.123Z,13.23
2022-12-11T10:14:17.509Z,13.47
2022-12-11T10:17:23.597Z,13.83
2022-12-11T10:20:39.577Z,13.97
2022-12-11T10:23:51.415Z,13.77
2022-12-11T10:26:58.517Z,15.73
2022-12-11T10:30:03.005Z,15.93
2022-12-11T10:33:07.865Z,15.47
2022-12-11T10:36:10.971Z,15.63
2022-12-11T10:39:19.010Z,14.83
2022-12-11T10:42:22.988Z,15.43
2022-12-11T10:45:25.169Z,17.43
2022-12-11T10:48:27.274Z,16.37
2022-12-11T10:51:32.039Z,14.53
2022-12-11T10:54:37.034Z,15.60
2022-12-11T10:57:39.765Z,15.00
2022-12-11T11:00:42.635Z,15.73
2022-12-11T11:04:07.502Z,16.17
2022-12-11T11:07:34.670Z,17.27
2022-12-11T11:10:36.847Z,16.90
2022-12-11T11:13:39.024Z,13.07
2022-12-11T11:16:43.274Z,14.50
2022-12-11T11:19:48.450Z,12.93
2022-12-11T11:23:00.267Z,15.10
2022-12-11T11:26:08.474Z,12.93
2022-12-11T11:29:29.391Z,13.90
2022-12-11T11:32:40.048Z,14.23
2022-12-11T11:35:56.098Z,12.63
2022-12-11T11:39:20.308Z,12.90
2022-12-11T11:42:43.933Z,10.97
2022-12-11T11:45:57.865Z,12.23
2022-12-11T11:49:20.556Z,12.30
2022-12-11T11:52:30.947Z,12.80
2022-12-11T11:55:52.262Z,10.27
2022-12-11T11:59:06.313Z,10.97
2022-12-11T12:02:16.322Z,10.13
2022-12-11T12:05:25.834Z,10.20
2022-12-11T12:08:33.571Z,10.27
2022-12-11T12:11:58.591Z,12.40
2022-12-11T12:15:20.256Z,10.43
2022-12-11T12:18:50.232Z,12.20
2022-12-11T12:21:53.227Z,11.13
2022-12-11T12:25:14.864Z,10.87
2022-12-11T12:28:28.605Z,11.97
2022-12-11T12:31:56.691Z,13.37
2022-12-11T12:35:11.993Z,13.77
2022-12-11T12:38:50.367Z,14.10
2022-12-11T12:42:07.528Z,15.43
2022-12-11T12:45:13.813Z,14.40
2022-12-11T12:48:16.406Z,12.77
2022-12-11T12:51:19.163Z,14.73
2022-12-11T12:54:22.308Z,15.20
2022-12-11T12:57:24.738Z,15.17
2022-12-11T13:00:36.573Z,15.83
2022-12-11T13:04:02.267Z,16.83
2022-12-11T13:07:20.385Z,16.23
2022-12-11T13:10:26.570Z,16.70
2022-12-11T13:13:40.959Z,14.70
2022-12-11T13:16:48.203Z,15.23
2022-12-11T13:19:57.714Z,17.57
2022-12-11T13:23:29.352Z,14.03
2022-12-11T13:26:33.184Z,15.07
2022-12-11T13:29:36.958Z,17.33
2022-12-11T13:32:39.416Z,15.87
2022-12-11T13:35:41.881Z,14.83
2022-12-11T13:38:52.092Z,15.10
2022-12-11T13:42:02.159Z,14.70
2022-12-11T13:45:05.979Z,13.53
2022-12-11T13:48:19.973Z,15.60
2022-12-11T13:51:24.890Z,14.30
2022-12-11T13:54:29.134Z,17.03
2022-12-11T13:57:31.174Z,17.03
2022-12-11T14:00:33.608Z,16.17
2022-12-11T14:03:36.330Z,14.83
2022-12-11T14:06:40.155Z,17.83
2022-12-11T14:09:46.201Z,15.30
2022-12-11T14:12:54.104Z,14.87
2022-12-11T14:15:56.262Z,14.77
2022-12-11T14:19:10.372Z,16.13
2022-12-11T14:22:24.699Z,16.37
2022-12-11T14:25:28.452Z,16.00
2022-12-11T14:28:38.218Z,19.67
2022-12-11T14:31:44.607Z,18.07
2022-12-11T14:34:49.250Z,15.17
2022-12-11T14:37:53.065Z,20.13
2022-12-11T14:41:03.560Z,18.63
2022-12-11T14:44:12.823Z,18.13
2022-12-11T14:47:21.167Z,16.60
2022-12-11T14:50:28.865Z,16.20
2022-12-11T14:53:38.106Z,13.93
2022-12-11T14:56:40.266Z,13.67
2022-12-11T14:59:47.261Z,12.77
2022-12-11T15:03:01.564Z,14.10
2022-12-11T15:06:23.799Z,14.10
2022-12-11T15:09:37.722Z,13.50
2022-12-11T15:12:45.401Z,10.80
2022-12-11T15:15:48.037Z,9.90
2022-12-11T15:18:52.505Z,9.87
2022-12-11T15:21:55.587Z,9.27
2022-12-11T15:25:00.436Z,10.30
2022-12-11T15:28:02.489Z,11.80
2022-12-11T15:31:06.058Z,10.37
2022-12-11T15:34:23.234Z,10.67
2022-12-11T15:37:36.774Z,9.53
2022-12-11T15:40:39.711Z,9.23
2022-12-11T15:43:42.630Z,8.77
2022-12-11T15:46:45.048Z,10.10
2022-12-11T15:49:47.574Z,8.80
2022-12-11T15:52:51.810Z,9.43
2022-12-11T15:55:54.451Z,10.20
2022-12-11T15:59:04.825Z,11.23
2022-12-11T16:02:13.390Z,9.07
2022-12-11T16:05:15.841Z,9.47
2022-12-11T16:08:20.437Z,7.47
2022-12-11T16:11:22.478Z,7.17
2022-12-11T16:14:24.592Z,9.60
2022-12-11T16:17:27.074Z,8.97
2022-12-11T16:20:31.130Z,7.93
2022-12-11T16:23:33.331Z,8.33
2022-12-11T16:26:35.700Z,8.50
2022-12-11T16:29:40.115Z,8.33
2022-12-11T16:32:43.095Z,8.00
2022-12-11T16:35:50.358Z,8.93
2022-12-11T16:38:54.220Z,9.60
2022-12-11T16:41:57.054Z,10.33
2022-12-11T16:45:06.763Z,10.13
2022-12-11T16:48:09.700Z,11.87
2022-12-11T16:51:11.974Z,11.03
2022-12-11T16:54:14.105Z,10.93
2022-12-11T16:57:16.802Z,13.17
2022-12-11T17:00:19.071Z,14.17
2022-12-11T17:03:21.117Z,13.43
2022-12-11T17:06:23.624Z,13.60
2022-12-11T17:09:26.337Z,15.90
2022-12-11T17:12:32.334Z,14.73
2022-12-11T17:15:40.167Z,15.07
2022-12-11T17:18:43.601Z,17.00
2022-12-11T17:21:51.649Z,14.37
2022-12-11T17:24:54.405Z,16.43
2022-12-11T17:27:57.836Z,16.10
2022-12-11T17:31:05.498Z,16.27
2022-12-11T17:34:08.731Z,16.53
2022-12-11T17:37:11.567Z,16.77
2022-12-11T17:40:19.302Z,17.23
2022-12-11T17:43:22.368Z,18.30
2022-12-11T17:46:25.082Z,17.33
2022-12-11T17:49:28.241Z,19.03
2022-12-11T17:52:35.008Z,18.13
2022-12-11T17:55:44.308Z,19.63
2022-12-11T17:58:46.911Z,18.33
2022-12-11T18:01:49.627Z,16.27
2022-12-11T18:04:52.647Z,15.73
2022-12-11T18:07:57.878Z,17.10
2022-12-11T18:11:16.915Z,14.87
2022-12-11T18:14:19.691Z,16.80
2022-12-11T18:17:22.121Z,18.80
2022-12-11T18:20:25.403Z,15.03
2022-12-11T18:23:28.672Z,15.47
2022-12-11T18:26:35.231Z,18.27
2022-12-11T18:29:37.874Z,16.70
2022-12-11T18:32:46.935Z,17.20
2022-12-11T18:35:51.963Z,16.73
2022-12-11T18:38:54.455Z,20.40
2022-12-11T18:42:30.649Z,15.57
2022-12-11T18:45:20.381Z,17.20
2022-12-11T18:48:23.901Z,18.90
2022-12-11T18:51:27.231Z,16.07
2022-12-11T18:54:30.160Z,17.47
2022-12-11T18:57:33.195Z,16.50
2022-12-11T19:00:39.868Z,16.53
2022-12-11T19:03:43.164Z,14.43
2022-12-11T19:06:46.604Z,15.50
2022-12-11T19:09:49.760Z,13.67
2022-12-11T19:12:52.810Z,14.80
2022-12-11T19:15:57.255Z,15.90
2022-12-11T19:19:01.425Z,14.87
2022-12-11T19:22:06.200Z,14.13
2022-12-11T19:25:09.624Z,14.27
2022-12-11T19:28:13.541Z,15.87
2022-12-11T19:31:19.656Z,14.87
2022-12-11T19:34:26.875Z,12.90
2022-12-11T19:37:29.541Z,14.53
2022-12-11T19:40:32.664Z,14.67
2022-12-11T19:43:38.111Z,12.40
2022-12-11T19:46:41.518Z,13.27
2022-12-11T19:49:44.921Z,14.10
2022-12-11T19:52:48.841Z,14.63
2022-12-11T19:55:54.670Z,13.20
2022-12-11T19:58:58.014Z,12.27
2022-12-11T20:02:01.255Z,13.47
2022-12-11T20:05:04.923Z,11.87
2022-12-11T20:08:42.294Z,15.10
2022-12-11T20:11:33.186Z,14.27
2022-12-11T20:14:37.232Z,13.30
2022-12-11T20:17:44.512Z,14.17
2022-12-11T20:20:47.815Z,13.37
2022-12-11T20:23:52.219Z,13.77
2022-12-11T20:26:57.711Z,11.80
2022-12-11T20:30:00.689Z,13.23
2022-12-11T20:33:07.090Z,11.53
2022-12-11T20:36:14.277Z,11.97
2022-12-11T20:39:17.411Z,11.27
2022-12-11T20:42:20.848Z,11.77
2022-12-11T20:45:23.703Z,10.33
2022-12-11T20:48:26.859Z,12.27
2022-12-11T20:51:33.087Z,13.60
2022-12-11T20:54:35.487Z,12.87
2022-12-11T20:57:44.770Z,12.70
2022-12-11T21:00:48.817Z,13.83
2022-12-11T21:03:55.083Z,13.30
2022-12-11T21:06:58.586Z,17.23
2022-12-11T21:10:00.762Z,12.73
2022-12-11T21:13:03.191Z,13.73
2022-12-11T21:16:08.136Z,12.93
2022-12-11T21:19:16.649Z,13.43
2022-12-11T21:22:19.651Z,14.07
2022-12-11T21:25:21.806Z,14.33
2022-12-11T21:28:24.101Z,14.43
2022-12-11T21:31:27.479Z,11.47
2022-12-11T21:34:29.878Z,11.70
2022-12-11T21:37:32.369Z,13.27
2022-12-11T21:40:34.825Z,14.10
2022-12-11T21:43:42.754Z,13.73
2022-12-11T21:46:59.628Z,12.87
2022-12-11T21:50:01.715Z,13.97
2022-12-11T21:53:04.014Z,13.97
2022-12-11T21:56:07.958Z,13.53
2022-12-11T21:59:10.391Z,11.17
2022-12-11T22:02:12.443Z,12.73
2022-12-11T22:05:14.685Z,14.63
2022-12-11T22:08:17.170Z,12.40
2022-12-11T22:11:21.373Z,12.00
2022-12-11T22:14:23.428Z,12.87
2022-12-11T22:17:25.400Z,14.57
2022-12-11T22:20:27.440Z,11.47
2022-12-11T22:23:29.497Z,12.47
2022-12-11T22:26:31.495Z,14.20
2022-12-11T22:29:33.580Z,13.70
2022-12-11T22:32:35.624Z,14.23
2022-12-11T22:35:38.157Z,13.83
2022-12-11T22:38:40.294Z,14.57
2022-12-11T22:41:42.727Z,14.80
2022-12-11T22:44:44.686Z,13.17
2022-12-11T22:47:46.760Z,13.53
2022-12-11T22:50:48.741Z,12.97
2022-12-11T22:53:51.326Z,10.53
2022-12-11T22:56:53.358Z,11.37
2022-12-11T22:59:57.104Z,13.63
2022-12-11T23:02:59.193Z,14.90
2022-12-11T23:06:05.409Z,14.63
2022-12-11T23:09:07.721Z,13.83
2022-12-11T23:12:09.773Z,11.17
2022-12-11T23:15:12.399Z,17.40
2022-12-11T23:18:14.864Z,14.47
2022-12-11T23:21:17.141Z,14.93
2022-12-11T23:24:19.229Z,12.80
2022-12-11T23:27:21.472Z,14.40
2022-12-11T23:30:24.149Z,12.73
2022-12-11T23:33:26.178Z,13.27
2022-12-11T23:36:29.296Z,12.57
2022-12-11T23:39:31.304Z,10.33
2022-12-11T23:42:33.850Z,12.00
2022-12-11T23:45:35.881Z,12.67
2022-12-11T23:48:37.987Z,12.13
2022-12-11T23:51:40.252Z,10.13
2022-12-11T23:54:42.297Z,10.30
2022-12-11T23:57:44.270Z,10.17
